Погода Кретовицена 2 недели

Нижнесилезское воеводство, Польша

17 - 30 июля
  • 17июля
    Сегодня
    +15°
    +27°
    Небольшая облачность
    ВремяПогодаТемператураВлажностьДавлениеВетер, м/сВероятность осадков
    02:00Ясно и безоблачно+20°C75 %752 мм2.2 м/с2 %
    05:00Ясно и безоблачно+17°C78 %753 мм2.3 м/с2 %
    08:00Ясно и безоблачно+21°C68 %755 мм2.6 м/с2 %
    11:00Небольшая облачность+24°C53 %755 мм2.6 м/с2 %
    14:00Небольшая облачность+26°C44 %755 мм3.7 м/с5 %
    17:00Пасмурно, сплошная облачность+26°C42 %755 мм3.3 м/с3 %
    20:00Практически безоблачно+25°C66 %755 мм1.1 м/с2 %
    23:00Практически безоблачно+21°C70 %756 мм1.2 м/с2 %
  • 18июля
    Четверг
    +16°
    +27°
    Небольшая облачность
    ВремяПогодаТемператураВлажностьДавлениеВетер, м/сВероятность осадков
    02:00Ясно и безоблачно+17°C85 %756 мм2.1 м/с2 %
    05:00Ясно и безоблачно+15°C87 %757 мм1.7 м/с2 %
    08:00Ясно и безоблачно+19°C76 %758 мм1.9 м/с2 %
    11:00Практически безоблачно+24°C59 %758 мм2.8 м/с2 %
    14:00Небольшая облачность+25°C52 %758 мм3.0 м/с4 %
    17:00Практически безоблачно+26°C48 %757 мм2.6 м/с2 %
    20:00Небольшая облачность+24°C72 %757 мм1.1 м/с2 %
    23:00Облачно с прояснениями+21°C59 %757 мм0.1 м/с2 %
  • 19июля
    Пятница
    +15°
    +27°
    Небольшая облачность
    ВремяПогодаТемператураВлажностьДавлениеВетер, м/сВероятность осадков
    02:00Небольшая облачность+18°C80 %758 мм1.9 м/с2 %
    05:00Облачно с прояснениями+16°C83 %757 мм2.0 м/с2 %
    08:00Облачно с прояснениями+20°C76 %757 мм1.2 м/с2 %
    11:00Ясно и безоблачно+25°C54 %757 мм0.6 м/с2 %
    14:00Небольшая облачность+26°C44 %756 мм0.2 м/с2 %
    17:00Облачно с прояснениями+27°C42 %755 мм1.0 м/с2 %
    20:00Ясно и безоблачно+25°C65 %754 мм1.4 м/с2 %
    23:00Небольшая облачность+19°C74 %754 мм2.0 м/с2 %
  • 20июля
    Суббота
    +15°
    +28°
    Небольшая облачность
    ВремяПогодаТемператураВлажностьДавлениеВетер, м/сВероятность осадков
    02:00Небольшая облачность+17°C83 %753 мм1.9 м/с2 %
    05:00Ясно и безоблачно+16°C90 %753 мм1.6 м/с2 %
    08:00Ясно и безоблачно+20°C75 %752 мм1.0 м/с2 %
    11:00Ясно и безоблачно+26°C47 %752 мм1.7 м/с2 %
    14:00Небольшая облачность+27°C39 %751 мм1.6 м/с2 %
    17:00Небольшая облачность+28°C38 %750 мм2.4 м/с2 %
    20:00Ясно и безоблачно+25°C57 %749 мм2.0 м/с2 %
    23:00Ясно и безоблачно+19°C71 %748 мм2.2 м/с2 %
  • 21июля
    Воскресенье
    +17°
    +29°
    Ясно и безоблачно
    ВремяПогодаТемператураВлажностьДавлениеВетер, м/сВероятность осадков
    02:00Ясно и безоблачно+18°C72 %748 мм2.0 м/с2 %
    05:00Ясно и безоблачно+16°C76 %747 мм2.4 м/с2 %
    08:00Ясно и безоблачно+21°C70 %747 мм2.3 м/с2 %
    11:00Ясно и безоблачно+27°C45 %747 мм4.0 м/с2 %
    14:00Ясно и безоблачно+28°C39 %745 мм3.9 м/с3 %
    17:00Небольшая облачность+29°C42 %745 мм3.5 м/с8 %
    20:00Облачно с прояснениями+26°C64 %745 мм3.3 м/с12 %
    23:00Пасмурно, ливень+21°C85 %746 мм3.6 м/с13 %
Мы используем cookies
Соглашаюсь